Time;durP1;ratioP1;P1;durP2;ratioP2;P2;SDS_P1;SDS_P2;PMS_P1;PMS_P2;Temp;Humidity;BMP_temperature;BMP_pressure;BME280_temperature;BME280_humidity;BME280_pressure;Samples;Min_cycle;Max_cycle;Signal;HPM_P1;HPM_P2
2022/04/15 00:01:26;;;;;;;14.15;4.00;;;;;;;;;;5018298;28;20033;-75
2022/04/15 00:03:53;;;;;;;10.90;3.80;;;;;;;;;;5026539;28;20038;-75
2022/04/15 00:06:20;;;;;;;9.30;3.35;;;;;;;;;;5017668;28;20128;-75
2022/04/15 00:08:47;;;;;;;9.80;3.95;;;;;;;;;;5025027;28;20057;-75
2022/04/15 00:11:13;;;;;;;14.30;4.55;;;;;;;;;;5028755;28;20075;-75
2022/04/15 00:13:41;;;;;;;11.85;4.32;;;;;;;;;;5025357;28;20734;-75
2022/04/15 00:16:07;;;;;;;16.60;4.30;;;;;;;;;;5021769;28;20042;-75
2022/04/15 00:18:34;;;;;;;10.88;3.85;;;;;;;;;;5028460;28;20044;-74
2022/04/15 00:21:01;;;;;;;10.10;3.60;;;;;;;;;;5017474;28;20104;-75
2022/04/15 00:23:27;;;;;;;18.88;3.58;;;;;;;;;;5019695;28;20546;-75
2022/04/15 00:25:54;;;;;;;9.15;2.88;;;;;;;;;;5028941;28;20029;-75
2022/04/15 00:28:20;;;;;;;7.90;2.80;;;;;;;;;;5027211;28;20060;-75
2022/04/15 00:30:46;;;;;;;13.65;3.55;;;;;;;;;;5023649;28;20045;-75
2022/04/15 00:33:13;;;;;;;10.45;2.65;;;;;;;;;;5008373;28;20061;-75
2022/04/15 00:35:39;;;;;;;9.75;2.95;;;;;;;;;;5014663;28;20096;-75
2022/04/15 00:38:05;;;;;;;10.40;3.22;;;;;;;;;;5009003;28;20072;-75
2022/04/15 00:40:32;;;;;;;12.38;3.55;;;;;;;;;;5021465;28;20029;-75
2022/04/15 00:42:57;;;;;;;8.05;3.13;;;;;;;;;;5028350;28;20038;-75
2022/04/15 00:45:24;;;;;;;13.05;3.95;;;;;;;;;;5027732;28;20052;-75
2022/04/15 00:47:51;;;;;;;9.00;4.10;;;;;;;;;;5025326;28;20666;-75
2022/04/15 00:50:20;;;;;;;10.23;4.00;;;;;;;;;;5008161;28;20490;-75
2022/04/15 00:52:47;;;;;;;12.88;4.25;;;;;;;;;;5027320;28;20033;-75
2022/04/15 00:55:14;;;;;;;20.27;4.13;;;;;;;;;;5012712;28;20084;-75
2022/04/15 00:57:44;;;;;;;10.65;3.83;;;;;;;;;;5025101;28;20052;-75
2022/04/15 01:00:11;;;;;;;12.90;4.40;;;;;;;;;;5017046;28;20040;-75
2022/04/15 01:02:38;;;;;;;15.30;4.00;;;;;;;;;;5027510;28;20025;-75
2022/04/15 01:05:05;;;;;;;11.38;3.45;;;;;;;;;;5027151;28;20055;-75
2022/04/15 01:07:35;;;;;;;15.25;3.33;;;;;;;;;;5027785;28;20112;-75
2022/04/15 01:10:03;;;;;;;12.00;3.58;;;;;;;;;;5027316;28;20481;-75
2022/04/15 01:12:30;;;;;;;11.48;3.80;;;;;;;;;;5027026;28;20057;-75
2022/04/15 01:15:00;;;;;;;10.57;3.72;;;;;;;;;;5020937;28;20076;-75
2022/04/15 01:17:28;;;;;;;13.10;4.00;;;;;;;;;;5023575;28;20034;-76
2022/04/15 01:19:54;;;;;;;13.00;4.28;;;;;;;;;;5016420;28;20029;-75
2022/04/15 01:22:23;;;;;;;14.68;4.10;;;;;;;;;;5022478;28;20022;-75
2022/04/15 01:24:49;;;;;;;10.55;4.07;;;;;;;;;;4979868;28;1180479;-76
2022/04/15 01:27:35;;;;;;;11.48;3.75;;;;;;;;;;5008042;28;20042;-76
2022/04/15 01:30:01;;;;;;;9.93;3.65;;;;;;;;;;5016241;28;20038;-75
2022/04/15 01:32:27;;;;;;;9.45;3.67;;;;;;;;;;5031790;28;20029;-75
2022/04/15 01:34:53;;;;;;;10.60;3.25;;;;;;;;;;5032641;28;20048;-76
2022/04/15 01:37:20;;;;;;;12.70;3.60;;;;;;;;;;5032257;28;20061;-75
2022/04/15 01:39:47;;;;;;;9.30;3.67;;;;;;;;;;5025798;28;20030;-75
2022/04/15 01:42:17;;;;;;;8.93;3.33;;;;;;;;;;5032609;28;20029;-75
2022/04/15 01:44:43;;;;;;;12.18;3.13;;;;;;;;;;5032936;28;20144;-76
2022/04/15 01:47:09;;;;;;;11.15;3.33;;;;;;;;;;5029508;28;20414;-75
2022/04/15 01:49:36;;;;;;;8.35;3.30;;;;;;;;;;5038324;28;20137;-76
2022/04/15 01:52:02;;;;;;;9.15;3.40;;;;;;;;;;5039161;28;20162;-75
2022/04/15 01:54:28;;;;;;;10.10;3.67;;;;;;;;;;5030313;28;20049;-75
2022/04/15 01:56:54;;;;;;;10.55;3.63;;;;;;;;;;5032282;28;20832;-75
2022/04/15 01:59:20;;;;;;;10.90;3.67;;;;;;;;;;5026422;28;20359;-75
2022/04/15 02:01:46;;;;;;;10.00;4.18;;;;;;;;;;5015069;28;20112;-75
2022/04/15 02:04:12;;;;;;;9.32;3.70;;;;;;;;;;5022582;28;20038;-75
2022/04/15 02:06:38;;;;;;;10.80;3.67;;;;;;;;;;5028343;28;20060;-75
2022/04/15 02:09:04;;;;;;;7.25;3.58;;;;;;;;;;5031958;28;20037;-75
2022/04/15 02:11:30;;;;;;;10.30;3.33;;;;;;;;;;5032273;28;20033;-75
2022/04/15 02:13:56;;;;;;;15.75;4.78;;;;;;;;;;5031644;28;20037;-76
2022/04/15 02:16:22;;;;;;;11.05;4.00;;;;;;;;;;5027087;28;20030;-75
2022/04/15 02:18:48;;;;;;;14.13;3.78;;;;;;;;;;5045763;28;20036;-75
2022/04/15 02:21:14;;;;;;;9.35;3.90;;;;;;;;;;5038514;28;20040;-76
2022/04/15 02:23:40;;;;;;;14.95;5.25;;;;;;;;;;5036528;28;20084;-75
2022/04/15 02:26:06;;;;;;;14.10;4.25;;;;;;;;;;5032016;28;20057;-76
2022/04/15 02:28:32;;;;;;;9.18;4.40;;;;;;;;;;5032183;28;20044;-75
2022/04/15 02:30:58;;;;;;;14.35;4.85;;;;;;;;;;5026256;28;20196;-75
2022/04/15 02:33:24;;;;;;;9.43;4.40;;;;;;;;;;5021758;28;20125;-75
2022/04/15 02:35:50;;;;;;;11.30;4.15;;;;;;;;;;5019564;28;20030;-75
2022/04/15 02:38:17;;;;;;;15.93;4.82;;;;;;;;;;5020731;28;20037;-75
2022/04/15 02:40:43;;;;;;;15.27;5.00;;;;;;;;;;5025414;28;20067;-75
2022/04/15 02:43:10;;;;;;;14.85;4.45;;;;;;;;;;5020047;28;20040;-75
2022/04/15 02:45:36;;;;;;;10.63;3.60;;;;;;;;;;5016768;28;20516;-75
2022/04/15 02:48:02;;;;;;;10.85;3.53;;;;;;;;;;5010399;28;20490;-75
2022/04/15 02:50:28;;;;;;;9.18;3.80;;;;;;;;;;5011511;28;20117;-75
2022/04/15 02:52:54;;;;;;;10.60;4.25;;;;;;;;;;5028562;28;20034;-75
2022/04/15 02:55:20;;;;;;;12.48;3.80;;;;;;;;;;5026062;28;20037;-76
2022/04/15 02:57:46;;;;;;;6.90;3.30;;;;;;;;;;5030039;28;20067;-74
2022/04/15 03:00:13;;;;;;;9.00;3.00;;;;;;;;;;5031125;28;20037;-75
2022/04/15 03:02:39;;;;;;;9.32;3.30;;;;;;;;;;5031084;28;20029;-75
2022/04/15 03:05:06;;;;;;;8.65;3.53;;;;;;;;;;5023351;28;20033;-75
2022/04/15 03:07:32;;;;;;;11.10;3.63;;;;;;;;;;5026145;28;20083;-75
2022/04/15 03:09:58;;;;;;;11.60;3.13;;;;;;;;;;5027422;28;20032;-74
2022/04/15 03:12:25;;;;;;;7.82;3.40;;;;;;;;;;5027519;28;20060;-75
2022/04/15 03:14:51;;;;;;;13.07;3.30;;;;;;;;;;5027229;28;20033;-75
2022/04/15 03:17:17;;;;;;;10.32;2.95;;;;;;;;;;5022302;28;20029;-75
2022/04/15 03:19:43;;;;;;;10.82;3.05;;;;;;;;;;5025967;28;20025;-75
2022/04/15 03:22:09;;;;;;;12.23;3.55;;;;;;;;;;5018479;28;20487;-75
2022/04/15 03:24:35;;;;;;;9.55;3.65;;;;;;;;;;5028837;28;20120;-75
2022/04/15 03:27:01;;;;;;;10.63;3.30;;;;;;;;;;5018747;28;20494;-75
2022/04/15 03:29:27;;;;;;;7.82;3.03;;;;;;;;;;5015605;28;20034;-75
2022/04/15 03:31:53;;;;;;;10.23;2.90;;;;;;;;;;5013076;28;20044;-75
2022/04/15 03:34:19;;;;;;;9.57;4.07;;;;;;;;;;5032021;28;20112;-75
2022/04/15 03:36:45;;;;;;;10.73;3.80;;;;;;;;;;5035270;28;20068;-76
2022/04/15 03:39:11;;;;;;;11.32;2.92;;;;;;;;;;5019824;28;20033;-75
2022/04/15 03:41:37;;;;;;;13.68;5.18;;;;;;;;;;5030787;28;20623;-76
2022/04/15 03:44:04;;;;;;;15.40;4.35;;;;;;;;;;5029868;28;20041;-75
2022/04/15 03:46:30;;;;;;;13.00;3.42;;;;;;;;;;5026774;28;20041;-75
2022/04/15 03:48:56;;;;;;;10.45;3.55;;;;;;;;;;5021517;28;20044;-75
2022/04/15 03:51:22;;;;;;;11.82;3.90;;;;;;;;;;5023546;28;20036;-75
2022/04/15 03:53:48;;;;;;;11.38;3.78;;;;;;;;;;5029783;28;20033;-76
2022/04/15 03:56:14;;;;;;;10.77;4.22;;;;;;;;;;5029946;28;20325;-75
2022/04/15 03:58:40;;;;;;;12.05;4.78;;;;;;;;;;5030328;28;20029;-76
2022/04/15 04:01:06;;;;;;;14.80;4.00;;;;;;;;;;5018290;28;20084;-76
2022/04/15 04:03:32;;;;;;;15.10;4.95;;;;;;;;;;5016457;28;20073;-76
2022/04/15 04:05:58;;;;;;;14.52;3.92;;;;;;;;;;5016936;28;20061;-76
2022/04/15 04:08:24;;;;;;;14.20;4.10;;;;;;;;;;5010255;28;20387;-75
2022/04/15 04:10:50;;;;;;;12.00;3.50;;;;;;;;;;5023981;28;20037;-76
2022/04/15 04:13:16;;;;;;;10.50;3.50;;;;;;;;;;5029823;28;20057;-75
2022/04/15 04:15:42;;;;;;;14.98;4.25;;;;;;;;;;5028745;28;20041;-76
2022/04/15 04:18:10;;;;;;;13.35;4.30;;;;;;;;;;5029699;28;20132;-76
2022/04/15 04:20:36;;;;;;;11.48;3.97;;;;;;;;;;5028630;28;20040;-76
2022/04/15 04:23:02;;;;;;;12.77;4.30;;;;;;;;;;5010014;28;20129;-76
2022/04/15 04:25:28;;;;;;;7.95;3.90;;;;;;;;;;5034010;28;20037;-75
2022/04/15 04:27:54;;;;;;;12.07;4.63;;;;;;;;;;5033532;28;20140;-76
2022/04/15 04:30:20;;;;;;;10.25;3.55;;;;;;;;;;5022892;28;20037;-76
2022/04/15 04:32:49;;;;;;;16.35;3.70;;;;;;;;;;5049801;28;20119;-75
2022/04/15 04:35:16;;;;;;;9.52;3.65;;;;;;;;;;5042291;28;20033;-75
2022/04/15 04:37:43;;;;;;;13.00;4.28;;;;;;;;;;5010075;28;20056;-75
2022/04/15 04:40:09;;;;;;;14.20;4.50;;;;;;;;;;5010488;28;20113;-75
2022/04/15 04:42:35;;;;;;;18.17;5.13;;;;;;;;;;5027056;28;20117;-75
2022/04/15 04:45:01;;;;;;;11.15;3.53;;;;;;;;;;5024228;28;20116;-75
2022/04/15 04:47:27;;;;;;;12.98;3.85;;;;;;;;;;5046595;28;20041;-76
2022/04/15 04:49:55;;;;;;;9.25;3.72;;;;;;;;;;5049165;28;20041;-75
2022/04/15 04:52:22;;;;;;;14.88;3.97;;;;;;;;;;5032790;28;20036;-75
2022/04/15 04:54:48;;;;;;;11.48;3.85;;;;;;;;;;5029308;28;20037;-75
2022/04/15 04:57:14;;;;;;;12.10;3.55;;;;;;;;;;5027719;28;20108;-75
2022/04/15 04:59:40;;;;;;;10.40;3.78;;;;;;;;;;5021913;28;20516;-76
2022/04/15 05:02:08;;;;;;;18.13;4.50;;;;;;;;;;5018081;28;20084;-75
2022/04/15 05:04:34;;;;;;;14.05;4.00;;;;;;;;;;5027265;28;20041;-75
2022/04/15 05:07:00;;;;;;;15.85;5.32;;;;;;;;;;5015895;28;20034;-75
2022/04/15 05:09:26;;;;;;;11.23;3.60;;;;;;;;;;5024968;28;20033;-75
2022/04/15 05:11:52;;;;;;;14.25;3.83;;;;;;;;;;5028943;28;20143;-75
2022/04/15 05:14:18;;;;;;;12.00;3.72;;;;;;;;;;5027018;28;20531;-75
2022/04/15 05:16:44;;;;;;;16.17;5.80;;;;;;;;;;5027749;28;20034;-76
2022/04/15 05:19:10;;;;;;;14.95;5.57;;;;;;;;;;5027514;28;20144;-75
2022/04/15 05:21:36;;;;;;;18.10;5.43;;;;;;;;;;5017234;28;20116;-75
2022/04/15 05:24:02;;;;;;;17.50;5.60;;;;;;;;;;5026659;28;20116;-76
2022/04/15 05:26:29;;;;;;;15.93;5.78;;;;;;;;;;5029050;28;20041;-75
2022/04/15 05:28:55;;;;;;;15.60;5.53;;;;;;;;;;5028377;28;20120;-75
2022/04/15 05:31:21;;;;;;;20.15;5.78;;;;;;;;;;5014152;28;20588;-75
2022/04/15 05:33:47;;;;;;;14.93;5.03;;;;;;;;;;5026963;28;20037;-76
2022/04/15 05:36:13;;;;;;;10.77;4.90;;;;;;;;;;5018083;28;20045;-76
2022/04/15 05:38:39;;;;;;;22.33;6.35;;;;;;;;;;5020894;28;20026;-76
2022/04/15 05:41:06;;;;;;;21.65;6.82;;;;;;;;;;5014962;28;20663;-76
2022/04/15 05:43:32;;;;;;;24.17;7.15;;;;;;;;;;5015950;28;20030;-76
2022/04/15 05:45:58;;;;;;;18.77;6.00;;;;;;;;;;5017610;28;20049;-75
2022/04/15 05:48:24;;;;;;;19.13;6.63;;;;;;;;;;5027044;28;20829;-75
2022/04/15 05:50:51;;;;;;;16.50;5.88;;;;;;;;;;5024746;28;20045;-75
2022/04/15 05:53:17;;;;;;;19.60;6.30;;;;;;;;;;5026439;28;20040;-75
2022/04/15 05:55:43;;;;;;;25.00;7.20;;;;;;;;;;5026637;28;20064;-75
2022/04/15 05:58:10;;;;;;;29.88;8.00;;;;;;;;;;5008462;28;20471;-75
2022/04/15 06:00:37;;;;;;;19.98;6.97;;;;;;;;;;5018917;28;20155;-75
2022/04/15 06:03:03;;;;;;;20.52;7.75;;;;;;;;;;5020258;28;20033;-75
2022/04/15 06:05:29;;;;;;;25.27;7.00;;;;;;;;;;5008063;28;20403;-76
2022/04/15 06:07:55;;;;;;;26.88;7.50;;;;;;;;;;5019359;28;20116;-75
2022/04/15 06:10:21;;;;;;;19.67;7.00;;;;;;;;;;5021717;28;20172;-75
2022/04/15 06:15:32;;;;;;;18.77;6.60;;;;;;;;;;5021010;28;20052;-75
2022/04/15 06:18:01;;;;;;;18.63;6.88;;;;;;;;;;5017178;28;20040;-75
2022/04/15 06:20:28;;;;;;;23.05;7.40;;;;;;;;;;5026826;28;20814;-75
2022/04/15 06:22:54;;;;;;;27.20;8.95;;;;;;;;;;5031186;28;20708;-75
2022/04/15 06:25:20;;;;;;;23.00;7.15;;;;;;;;;;5027733;28;20494;-75
2022/04/15 06:27:46;;;;;;;24.05;7.38;;;;;;;;;;5028969;28;20041;-75
2022/04/15 06:30:13;;;;;;;21.25;7.68;;;;;;;;;;5016658;28;20033;-75
2022/04/15 06:32:39;;;;;;;27.52;7.70;;;;;;;;;;5030818;28;20533;-75
2022/04/15 06:35:05;;;;;;;23.88;8.18;;;;;;;;;;5011792;28;20129;-76
2022/04/15 06:37:31;;;;;;;19.55;7.20;;;;;;;;;;5016850;28;20687;-75
2022/04/15 06:39:57;;;;;;;23.75;6.82;;;;;;;;;;5019627;28;20037;-75
2022/04/15 06:42:24;;;;;;;18.05;6.95;;;;;;;;;;5029961;28;20045;-76
2022/04/15 06:44:51;;;;;;;15.90;7.45;;;;;;;;;;5016868;28;20479;-76
2022/04/15 06:47:17;;;;;;;20.85;7.40;;;;;;;;;;5022640;28;20067;-76
2022/04/15 06:49:45;;;;;;;23.33;7.93;;;;;;;;;;4996466;28;20026;-75
2022/04/15 06:52:11;;;;;;;27.05;8.35;;;;;;;;;;5028688;28;20103;-75
2022/04/15 06:54:37;;;;;;;18.80;8.52;;;;;;;;;;5030754;28;20037;-75
2022/04/15 06:57:03;;;;;;;21.15;7.80;;;;;;;;;;5026732;28;20044;-76
2022/04/15 06:59:29;;;;;;;25.40;7.97;;;;;;;;;;5030356;28;20033;-76
2022/04/15 07:01:55;;;;;;;17.98;7.68;;;;;;;;;;5025111;28;20037;-75
2022/04/15 07:04:21;;;;;;;22.38;7.72;;;;;;;;;;5022279;28;20037;-75
2022/04/15 07:06:48;;;;;;;18.75;7.32;;;;;;;;;;5025193;28;20049;-76
2022/04/15 07:09:14;;;;;;;13.65;6.55;;;;;;;;;;5012863;28;20033;-75
2022/04/15 07:11:40;;;;;;;26.23;7.72;;;;;;;;;;5030015;28;20844;-75
2022/04/15 07:14:06;;;;;;;19.63;6.75;;;;;;;;;;5018176;28;20120;-75
2022/04/15 07:16:34;;;;;;;26.50;7.15;;;;;;;;;;5023581;28;20140;-75
2022/04/15 07:19:04;;;;;;;22.50;7.32;;;;;;;;;;5016966;28;20026;-76
2022/04/15 07:21:30;;;;;;;18.85;6.60;;;;;;;;;;5014552;28;20064;-76
2022/04/15 07:23:56;;;;;;;23.70;5.95;;;;;;;;;;5033854;28;20045;-76
2022/04/15 07:26:22;;;;;;;17.63;6.25;;;;;;;;;;5020340;28;20082;-76
2022/04/15 07:28:48;;;;;;;32.25;5.80;;;;;;;;;;5027219;28;20040;-75
2022/04/15 07:31:14;;;;;;;20.30;6.60;;;;;;;;;;5031135;28;20041;-76
2022/04/15 07:33:40;;;;;;;16.95;6.47;;;;;;;;;;5024958;28;20037;-76
2022/04/15 07:36:31;;;;;;;23.63;6.05;;;;;;;;;;5027518;28;20064;-76
2022/04/15 07:38:52;;;;;;;23.52;5.60;;;;;;;;;;5028394;28;20042;-76
2022/04/15 07:41:18;;;;;;;22.15;5.25;;;;;;;;;;5018860;28;20091;-76
2022/04/15 07:43:45;;;;;;;17.70;5.18;;;;;;;;;;5021881;28;20030;-75
2022/04/15 07:46:11;;;;;;;21.60;4.75;;;;;;;;;;5028650;28;20474;-76
2022/04/15 07:48:37;;;;;;;24.70;5.45;;;;;;;;;;5026706;28;20560;-76
2022/04/15 07:51:04;;;;;;;20.52;5.18;;;;;;;;;;5021812;28;20121;-76
2022/04/15 07:53:30;;;;;;;17.55;4.47;;;;;;;;;;5017063;28;20053;-76
2022/04/15 07:55:56;;;;;;;16.50;4.63;;;;;;;;;;5013820;28;20466;-75
2022/04/15 07:58:22;;;;;;;20.38;4.65;;;;;;;;;;5029030;28;20029;-75
2022/04/15 08:00:49;;;;;;;12.50;4.55;;;;;;;;;;5025566;28;20091;-76
2022/04/15 08:03:17;;;;;;;20.60;5.75;;;;;;;;;;5017445;28;20755;-76
2022/04/15 08:05:43;;;;;;;18.15;4.72;;;;;;;;;;5023420;28;20036;-75
2022/04/15 08:08:11;;;;;;;15.00;4.88;;;;;;;;;;5021556;28;20112;-75
2022/04/15 08:10:37;;;;;;;17.08;5.28;;;;;;;;;;5025873;28;20029;-75
2022/04/15 08:13:03;;;;;;;17.17;4.55;;;;;;;;;;5029946;28;20471;-76
2022/04/15 08:15:29;;;;;;;17.23;5.53;;;;;;;;;;5020938;28;20037;-76
2022/04/15 08:17:55;;;;;;;16.83;4.05;;;;;;;;;;5026848;28;20025;-75
2022/04/15 08:20:21;;;;;;;16.25;4.07;;;;;;;;;;5023610;28;20036;-76
2022/04/15 08:22:47;;;;;;;14.50;4.00;;;;;;;;;;5023845;28;20033;-75
2022/04/15 08:25:14;;;;;;;14.18;4.10;;;;;;;;;;5019299;28;20632;-76
2022/04/15 08:27:40;;;;;;;12.68;3.70;;;;;;;;;;5023589;28;20108;-75
2022/04/15 08:30:06;;;;;;;10.13;3.60;;;;;;;;;;5028613;28;20111;-76
2022/04/15 08:32:35;;;;;;;12.07;3.53;;;;;;;;;;5026653;28;20117;-76
2022/04/15 08:35:02;;;;;;;9.55;3.38;;;;;;;;;;5028259;28;20071;-75
2022/04/15 08:37:28;;;;;;;16.67;3.85;;;;;;;;;;5028087;28;20203;-76
2022/04/15 08:39:54;;;;;;;14.13;3.88;;;;;;;;;;5021902;28;20038;-75
2022/04/15 08:42:23;;;;;;;10.75;3.05;;;;;;;;;;5021642;28;20658;-76
2022/04/15 08:44:52;;;;;;;12.63;2.63;;;;;;;;;;5023984;28;20047;-75
2022/04/15 08:47:18;;;;;;;13.38;2.55;;;;;;;;;;5025876;28;20395;-75
2022/04/15 08:49:45;;;;;;;9.52;3.03;;;;;;;;;;5020414;28;20471;-75
2022/04/15 08:52:12;;;;;;;14.77;3.53;;;;;;;;;;5024804;28;20037;-75
2022/04/15 08:54:38;;;;;;;15.57;3.20;;;;;;;;;;5026932;28;20022;-75
2022/04/15 08:57:06;;;;;;;8.25;2.85;;;;;;;;;;5022960;28;20105;-75
2022/04/15 08:59:32;;;;;;;11.10;2.80;;;;;;;;;;5025937;28;20060;-75
2022/04/15 09:01:58;;;;;;;6.80;2.70;;;;;;;;;;5027804;28;20049;-75
2022/04/15 09:04:25;;;;;;;12.80;2.95;;;;;;;;;;5025686;28;20112;-76
2022/04/15 09:07:02;;;;;;;12.35;3.08;;;;;;;;;;5027591;28;20040;-75
2022/04/15 09:09:29;;;;;;;10.93;3.00;;;;;;;;;;5027913;28;20458;-75
2022/04/15 09:11:59;;;;;;;13.75;2.97;;;;;;;;;;5021972;28;20041;-76
2022/04/15 09:14:25;;;;;;;13.75;3.13;;;;;;;;;;5031975;28;20754;-76
2022/04/15 09:16:51;;;;;;;13.40;3.28;;;;;;;;;;5038723;28;20505;-76
2022/04/15 09:19:17;;;;;;;12.95;2.90;;;;;;;;;;5015885;28;20032;-76
2022/04/15 09:21:53;;;;;;;16.88;3.78;;;;;;;;;;5022889;28;20030;-75
2022/04/15 09:24:37;;;;;;;14.73;3.40;;;;;;;;;;5018904;28;20053;-76
2022/04/15 09:27:06;;;;;;;14.40;2.83;;;;;;;;;;5023539;28;20044;-76
2022/04/15 09:29:36;;;;;;;11.10;2.70;;;;;;;;;;5018089;28;20037;-76
2022/04/15 09:32:07;;;;;;;10.02;2.72;;;;;;;;;;5020579;28;20491;-75
2022/04/15 09:34:33;;;;;;;14.18;2.55;;;;;;;;;;5013219;28;20124;-76
2022/04/15 09:37:05;;;;;;;11.38;2.55;;;;;;;;;;5023829;28;20704;-76
2022/04/15 09:39:31;;;;;;;9.90;3.20;;;;;;;;;;5010776;28;20468;-75
2022/04/15 09:41:57;;;;;;;14.48;3.10;;;;;;;;;;5022463;28;20048;-75
2022/04/15 09:44:31;;;;;;;8.50;2.95;;;;;;;;;;5010959;28;20052;-75
2022/04/15 09:46:57;;;;;;;10.20;2.67;;;;;;;;;;5020881;28;20427;-75
2022/04/15 09:49:25;;;;;;;15.70;3.30;;;;;;;;;;5019044;28;20029;-76
2022/04/15 09:51:54;;;;;;;8.38;2.78;;;;;;;;;;5026709;28;20038;-76
2022/04/15 09:54:22;;;;;;;10.07;3.40;;;;;;;;;;5022351;28;20034;-75
2022/04/15 09:56:49;;;;;;;14.05;3.25;;;;;;;;;;5030435;28;20038;-76
2022/04/15 09:59:15;;;;;;;11.68;3.28;;;;;;;;;;5005211;28;20034;-76
2022/04/15 10:01:45;;;;;;;8.77;2.88;;;;;;;;;;5022064;28;20376;-76
2022/04/15 10:04:15;;;;;;;9.18;2.45;;;;;;;;;;5023516;28;20529;-75
2022/04/15 10:06:42;;;;;;;17.63;3.95;;;;;;;;;;5030042;28;20034;-76
2022/04/15 10:09:12;;;;;;;9.55;3.95;;;;;;;;;;5026547;28;20075;-76
2022/04/15 10:11:45;;;;;;;13.10;4.05;;;;;;;;;;5017725;28;20053;-76
2022/04/15 10:14:12;;;;;;;15.45;5.10;;;;;;;;;;5021732;28;20038;-76
2022/04/15 10:16:39;;;;;;;10.55;4.13;;;;;;;;;;5036000;28;20039;-76
2022/04/15 10:19:05;;;;;;;17.02;4.68;;;;;;;;;;5026208;28;20471;-76
2022/04/15 10:21:33;;;;;;;15.18;5.00;;;;;;;;;;5027024;28;20515;-75
2022/04/15 10:24:01;;;;;;;22.52;4.53;;;;;;;;;;5031228;28;20136;-75
2022/04/15 10:26:27;;;;;;;11.85;4.18;;;;;;;;;;5027567;28;20049;-75
2022/04/15 10:28:54;;;;;;;17.27;4.88;;;;;;;;;;5021052;28;20402;-76
2022/04/15 10:31:20;;;;;;;10.25;4.45;;;;;;;;;;5022363;28;20037;-76
2022/04/15 10:33:50;;;;;;;12.55;4.00;;;;;;;;;;5023705;28;20437;-76
2022/04/15 10:36:16;;;;;;;12.60;4.32;;;;;;;;;;5018194;28;20701;-75
2022/04/15 10:39:00;;;;;;;13.35;4.75;;;;;;;;;;5027735;28;20029;-76
2022/04/15 10:41:26;;;;;;;9.57;3.78;;;;;;;;;;5025444;28;20100;-76
2022/04/15 10:43:59;;;;;;;11.98;3.97;;;;;;;;;;5021935;28;20041;-75
2022/04/15 10:46:32;;;;;;;12.65;4.15;;;;;;;;;;5029873;28;20041;-75
2022/04/15 10:48:59;;;;;;;11.68;4.13;;;;;;;;;;5021764;28;20037;-76
2022/04/15 10:51:27;;;;;;;17.73;4.95;;;;;;;;;;5029990;28;20116;-75
2022/04/15 10:53:53;;;;;;;14.57;4.60;;;;;;;;;;5026582;28;20123;-76
2022/04/15 10:56:21;;;;;;;11.18;4.70;;;;;;;;;;5023673;28;20108;-76
2022/04/15 11:01:53;;;;;;;13.68;4.90;;;;;;;;;;4993716;28;20112;-76
2022/04/15 11:04:26;;;;;;;10.38;4.47;;;;;;;;;;5020517;28;20084;-76
2022/04/15 11:06:53;;;;;;;10.50;4.30;;;;;;;;;;5025146;28;20125;-75
2022/04/15 11:09:23;;;;;;;13.30;3.88;;;;;;;;;;5024679;28;20033;-76
2022/04/15 11:11:53;;;;;;;8.80;3.70;;;;;;;;;;5020604;28;20128;-75
2022/04/15 11:14:31;;;;;;;11.63;4.05;;;;;;;;;;5020321;28;20489;-75
2022/04/15 11:16:59;;;;;;;10.77;3.80;;;;;;;;;;5027315;28;20065;-76
2022/04/15 11:19:26;;;;;;;14.40;4.45;;;;;;;;;;5022828;28;20025;-76
2022/04/15 11:21:56;;;;;;;13.35;4.30;;;;;;;;;;5015783;28;20030;-76
2022/04/15 11:24:33;;;;;;;10.07;3.80;;;;;;;;;;5023030;28;20057;-75
2022/04/15 11:27:01;;;;;;;10.90;4.05;;;;;;;;;;5022775;28;20047;-76
2022/04/15 11:29:31;;;;;;;12.20;4.32;;;;;;;;;;5022362;28;20030;-75
2022/04/15 11:31:58;;;;;;;14.25;3.85;;;;;;;;;;5023278;28;20030;-75
2022/04/15 11:34:24;;;;;;;13.10;3.80;;;;;;;;;;5024787;28;20060;-75
2022/04/15 11:36:56;;;;;;;14.73;3.88;;;;;;;;;;5026606;28;20076;-76
2022/04/15 11:39:23;;;;;;;10.27;3.88;;;;;;;;;;5026519;28;20017;-75
2022/04/15 11:41:52;;;;;;;10.73;3.67;;;;;;;;;;5026457;28;20037;-75
2022/04/15 11:44:19;;;;;;;13.13;3.88;;;;;;;;;;5015794;28;20502;-75
2022/04/15 11:46:46;;;;;;;9.98;3.90;;;;;;;;;;5019143;28;20048;-76
2022/04/15 11:49:16;;;;;;;8.85;3.17;;;;;;;;;;5019619;28;20030;-75
2022/04/15 11:51:47;;;;;;;13.02;3.53;;;;;;;;;;5029410;28;20482;-75
2022/04/15 11:54:13;;;;;;;12.60;3.80;;;;;;;;;;5021910;28;20029;-75
2022/04/15 11:56:40;;;;;;;7.80;3.35;;;;;;;;;;5023282;28;20076;-76
2022/04/15 11:59:09;;;;;;;14.07;3.90;;;;;;;;;;5021276;28;20108;-75
2022/04/15 12:01:35;;;;;;;10.60;3.80;;;;;;;;;;5021111;28;20029;-75
2022/04/15 12:04:01;;;;;;;13.75;3.72;;;;;;;;;;5024297;28;20037;-75
2022/04/15 12:06:29;;;;;;;11.18;3.78;;;;;;;;;;5025388;28;20037;-76
2022/04/15 12:08:57;;;;;;;13.15;3.50;;;;;;;;;;5020549;28;20139;-75
2022/04/15 12:11:24;;;;;;;10.90;3.28;;;;;;;;;;4992362;28;20420;-76
2022/04/15 12:13:58;;;;;;;10.48;3.08;;;;;;;;;;5023452;28;20124;-75
2022/04/15 12:16:24;;;;;;;12.30;3.17;;;;;;;;;;5021867;28;20026;-76
2022/04/15 12:18:51;;;;;;;14.60;3.38;;;;;;;;;;5019926;28;20033;-75
2022/04/15 12:21:17;;;;;;;11.52;2.75;;;;;;;;;;5024689;28;20083;-76
2022/04/15 12:24:01;;;;;;;8.95;2.88;;;;;;;;;;5025655;28;20434;-75
2022/04/15 12:26:27;;;;;;;11.18;3.17;;;;;;;;;;5019404;28;20068;-75
2022/04/15 12:31:46;;;;;;;10.32;2.60;;;;;;;;;;5013072;28;20053;-75
2022/04/15 12:34:12;;;;;;;10.35;3.20;;;;;;;;;;5023662;28;20030;-75
2022/04/15 12:36:39;;;;;;;11.15;2.63;;;;;;;;;;5024061;28;20088;-76
2022/04/15 12:39:05;;;;;;;18.73;3.63;;;;;;;;;;5023559;28;20036;-76
2022/04/15 12:41:57;;;;;;;13.65;3.03;;;;;;;;;;5023257;28;20030;-74
2022/04/15 12:44:29;;;;;;;12.80;2.75;;;;;;;;;;5010007;28;20041;-75
2022/04/15 12:46:56;;;;;;;10.98;3.10;;;;;;;;;;5023449;28;20041;-75
2022/04/15 12:49:30;;;;;;;13.00;3.05;;;;;;;;;;5020565;28;20596;-76
2022/04/15 12:52:08;;;;;;;14.80;2.95;;;;;;;;;;5018069;28;20455;-75
2022/04/15 12:54:34;;;;;;;13.73;3.00;;;;;;;;;;5024717;28;20032;-75
2022/04/15 12:57:00;;;;;;;10.88;2.60;;;;;;;;;;5020376;28;20116;-76
2022/04/15 12:59:27;;;;;;;17.77;4.65;;;;;;;;;;5022913;28;20348;-75
2022/04/15 13:01:53;;;;;;;20.08;3.30;;;;;;;;;;5021424;28;20463;-75
2022/04/15 13:04:19;;;;;;;13.90;2.42;;;;;;;;;;5027253;28;20057;-75
2022/04/15 13:06:45;;;;;;;11.60;3.10;;;;;;;;;;5028073;28;20037;-75
2022/04/15 13:09:11;;;;;;;15.30;3.58;;;;;;;;;;5022945;28;20037;-75
2022/04/15 13:11:37;;;;;;;17.35;3.20;;;;;;;;;;5018053;28;20037;-76
2022/04/15 13:14:03;;;;;;;11.13;2.35;;;;;;;;;;5023946;28;20043;-75
2022/04/15 13:16:29;;;;;;;14.35;2.85;;;;;;;;;;5023378;28;20041;-76
2022/04/15 13:18:55;;;;;;;13.52;3.67;;;;;;;;;;5013112;28;20478;-75
2022/04/15 13:21:22;;;;;;;13.20;2.55;;;;;;;;;;5004115;28;20043;-76
2022/04/15 13:23:48;;;;;;;9.10;2.20;;;;;;;;;;5025823;28;20046;-75
2022/04/15 13:26:14;;;;;;;19.17;3.13;;;;;;;;;;5022811;28;20044;-75
2022/04/15 13:28:41;;;;;;;11.02;2.60;;;;;;;;;;5016814;28;20112;-75
2022/04/15 13:31:08;;;;;;;16.13;2.90;;;;;;;;;;5023130;28;20037;-75
2022/04/15 13:33:35;;;;;;;18.15;2.78;;;;;;;;;;5022778;28;20017;-75
2022/04/15 13:36:01;;;;;;;13.75;3.40;;;;;;;;;;5024879;28;20044;-76
2022/04/15 13:38:27;;;;;;;14.65;3.35;;;;;;;;;;5020028;28;20513;-75
2022/04/15 13:40:53;;;;;;;13.25;3.00;;;;;;;;;;5029507;28;20065;-76
2022/04/15 13:43:20;;;;;;;11.90;2.55;;;;;;;;;;5021330;28;20112;-75
2022/04/15 13:45:46;;;;;;;12.88;3.08;;;;;;;;;;5024666;28;20441;-75
2022/04/15 13:48:12;;;;;;;18.52;3.03;;;;;;;;;;5019473;28;20029;-76
2022/04/15 13:50:38;;;;;;;11.07;2.47;;;;;;;;;;5029396;28;20055;-75
2022/04/15 13:58:34;;;;;;;17.27;2.75;;;;;;;;;;5024064;28;20053;-76
2022/04/15 14:01:00;;;;;;;14.13;2.65;;;;;;;;;;5025074;28;20041;-75
2022/04/15 14:03:27;;;;;;;9.35;2.40;;;;;;;;;;5027899;28;20860;-75
2022/04/15 14:05:53;;;;;;;12.70;3.03;;;;;;;;;;5021107;28;20559;-75
2022/04/15 14:08:19;;;;;;;14.88;2.92;;;;;;;;;;5023092;28;20041;-75
2022/04/15 14:10:46;;;;;;;17.00;3.10;;;;;;;;;;5020506;28;20049;-75
2022/04/15 14:13:14;;;;;;;15.63;2.42;;;;;;;;;;5026306;28;20112;-75
2022/04/15 14:15:41;;;;;;;13.82;3.05;;;;;;;;;;5028475;28;20034;-75
2022/04/15 14:18:08;;;;;;;13.48;2.97;;;;;;;;;;5008643;28;20034;-75
2022/04/15 14:20:34;;;;;;;26.30;2.58;;;;;;;;;;5015274;28;20044;-75
2022/04/15 14:23:00;;;;;;;13.85;2.67;;;;;;;;;;5022633;28;20076;-75
2022/04/15 14:25:26;;;;;;;14.88;3.03;;;;;;;;;;5018221;28;20058;-75
2022/04/15 14:27:52;;;;;;;13.27;2.83;;;;;;;;;;5022250;28;20073;-75
2022/04/15 14:30:18;;;;;;;10.02;3.22;;;;;;;;;;5021333;28;20042;-75
2022/04/15 14:32:44;;;;;;;11.48;2.65;;;;;;;;;;5028738;28;20083;-75
2022/04/15 14:35:11;;;;;;;13.07;2.78;;;;;;;;;;5025349;28;20041;-75
2022/04/15 14:37:37;;;;;;;13.25;2.42;;;;;;;;;;5018377;28;20732;-75
2022/04/15 14:40:04;;;;;;;14.85;2.65;;;;;;;;;;5028834;28;20112;-76
2022/04/15 14:42:30;;;;;;;19.17;2.92;;;;;;;;;;5022634;28;20077;-76
2022/04/15 14:44:56;;;;;;;13.63;2.30;;;;;;;;;;5019695;28;20048;-76